CA56 weather

Correctional Training Facility Heliport
Soledad, California, United States

Public forecast

Using degrees Fahrenheit for public forecast. Weather courtesy of forecast.io.

Closest aviation weather report (METAR) to Correctional Training Facility Heliport

Closest report is Salinas Municipal Airport, 16.4 nm (30.3 km) NW. Retrieved 2019/10/19 17:53 UTC (24 minutes ago):

KSNS 191753Z 29003KT 10SM CLR 16/08 A3011 RMK AO2 SLP206 T01610078 10167 20067 50005

Closest aviation forecast (TAF) to Correctional Training Facility Heliport

Closest forecast is Salinas Municipal Airport, 16.4 nm (30.3 km) NW. Retrieved 2019/10/19 18:36 UTC (0 seconds ago):

TAF KSNS 191733Z 1918/2018 VRB03KT P6SM FEW250 FM192000 28010KT P6SM BKN015 FM200600 VRB05KT P6SM SCT010 FM200900 VRB03KT P6SM FEW008 FM201600 VRB03KT P6SM SKC